createdAt,value
2019-03-30T00:00:09.372Z,23.1
2019-03-30T00:03:15.471Z,23.1
2019-03-30T00:06:21.448Z,23
2019-03-30T00:09:27.507Z,23
2019-03-30T00:12:33.612Z,23
2019-03-30T00:15:39.635Z,23
2019-03-30T00:18:48.450Z,23
2019-03-30T00:21:54.459Z,23
2019-03-30T00:25:00.324Z,23
2019-03-30T00:28:06.252Z,23
2019-03-30T00:31:12.189Z,23
2019-03-30T00:34:18.211Z,22.9
2019-03-30T00:37:24.208Z,22.9
2019-03-30T00:40:30.127Z,23
2019-03-30T00:43:36.073Z,22.9
2019-03-30T00:46:42.032Z,22.9
2019-03-30T00:49:50.084Z,22.9
2019-03-30T00:52:56.268Z,22.9
2019-03-30T00:56:02.218Z,22.9
2019-03-30T00:59:08.189Z,22.9
2019-03-30T01:02:14.144Z,22.9
2019-03-30T01:05:20.216Z,22.9
2019-03-30T01:08:26.180Z,22.9
2019-03-30T01:11:32.143Z,22.9
2019-03-30T01:14:37.995Z,22.9
2019-03-30T01:17:43.984Z,22.8
2019-03-30T01:20:50.190Z,22.8
2019-03-30T01:23:56.139Z,22.8
2019-03-30T01:27:02.089Z,22.8
2019-03-30T01:30:22.111Z,22.8
2019-03-30T01:33:29.160Z,22.8
2019-03-30T01:36:35.091Z,22.8
2019-03-30T01:39:41.112Z,22.7
2019-03-30T01:42:47.217Z,22.7
2019-03-30T01:45:56.179Z,22.7
2019-03-30T01:49:02.179Z,22.7
2019-03-30T01:52:10.773Z,22.7
2019-03-30T01:55:16.717Z,22.7
2019-03-30T01:58:22.711Z,22.7
2019-03-30T02:01:28.637Z,22.7
2019-03-30T02:04:34.603Z,22.7
2019-03-30T02:07:40.623Z,22.7
2019-03-30T02:10:46.513Z,22.6
2019-03-30T02:13:52.554Z,22.7
2019-03-30T02:16:58.528Z,22.6
2019-03-30T02:20:04.442Z,22.6
2019-03-30T02:23:10.442Z,22.6
2019-03-30T02:26:16.405Z,22.6
2019-03-30T02:29:22.361Z,22.6
2019-03-30T02:32:30.952Z,22.6
2019-03-30T02:35:36.969Z,22.6
2019-03-30T02:38:43.034Z,22.6
2019-03-30T02:41:48.982Z,22.5
2019-03-30T02:44:55.010Z,22.5
2019-03-30T02:48:01.187Z,22.5
2019-03-30T02:51:07.195Z,22.5
2019-03-30T02:54:16.492Z,22.5
2019-03-30T02:57:22.634Z,22.5
2019-03-30T03:00:28.544Z,22.5
2019-03-30T03:03:34.610Z,22.5
2019-03-30T03:06:40.689Z,22.5
2019-03-30T03:09:46.705Z,22.5
2019-03-30T03:12:52.806Z,22.5
2019-03-30T03:15:58.994Z,22.4
2019-03-30T03:19:07.845Z,22.4
2019-03-30T03:22:13.776Z,22.4
2019-03-30T03:25:19.858Z,22.4
2019-03-30T03:28:25.759Z,22.4
2019-03-30T03:31:31.711Z,22.4
2019-03-30T03:34:38.048Z,22.4
2019-03-30T03:37:45.821Z,22.4
2019-03-30T03:40:52.266Z,22.4
2019-03-30T03:43:58.364Z,22.4
2019-03-30T03:47:04.374Z,22.3
2019-03-30T03:50:10.248Z,22.3
2019-03-30T03:53:16.346Z,22.3
2019-03-30T03:56:22.570Z,22.3
2019-03-30T03:59:28.593Z,22.3
2019-03-30T04:02:34.582Z,22.3
2019-03-30T04:05:40.611Z,22.3
2019-03-30T04:08:46.576Z,22.3
2019-03-30T04:11:52.615Z,22.3
2019-03-30T04:14:58.669Z,22.2
2019-03-30T04:18:04.713Z,22.2
2019-03-30T04:21:10.709Z,22.2
2019-03-30T04:24:16.709Z,22.2
2019-03-30T04:27:22.621Z,22.3
2019-03-30T04:30:28.586Z,22.2
2019-03-30T04:33:34.685Z,22.2
2019-03-30T04:36:40.691Z,22.3
2019-03-30T04:39:46.769Z,22.3
2019-03-30T04:42:52.787Z,22.3
2019-03-30T04:45:58.785Z,22.3
2019-03-30T04:49:04.816Z,22.3
2019-03-30T04:52:10.858Z,22.4
2019-03-30T04:55:16.826Z,22.3
2019-03-30T04:58:22.708Z,22.3
2019-03-30T05:01:28.693Z,22.4
2019-03-30T05:04:34.780Z,22.4
2019-03-30T05:07:40.672Z,22.6
2019-03-30T05:10:46.724Z,22.6
2019-03-30T05:13:52.607Z,22.7
2019-03-30T05:16:58.604Z,22.9
2019-03-30T05:20:04.680Z,23.1
2019-03-30T05:23:10.719Z,23.3
2019-03-30T05:26:16.733Z,23.4
2019-03-30T05:29:22.687Z,23.4
2019-03-30T05:32:28.610Z,23.6
2019-03-30T05:35:34.569Z,23.6
2019-03-30T05:38:40.499Z,23.7
2019-03-30T05:41:46.411Z,23.6
2019-03-30T05:44:52.442Z,23.5
2019-03-30T05:48:02.205Z,23.5
2019-03-30T05:51:08.175Z,23.5
2019-03-30T05:54:14.061Z,23.5
2019-03-30T05:57:19.991Z,23.5
2019-03-30T06:00:25.927Z,23.5
2019-03-30T06:03:31.890Z,23.5
2019-03-30T06:06:37.975Z,23.5
2019-03-30T06:09:43.874Z,23.5
2019-03-30T06:12:49.969Z,23.5
2019-03-30T06:15:55.890Z,23.5
2019-03-30T06:19:01.929Z,23.6
2019-03-30T06:22:07.858Z,23.6
2019-03-30T06:25:13.829Z,23.6
2019-03-30T06:28:19.814Z,23.6
2019-03-30T06:31:25.772Z,23.6
2019-03-30T06:34:31.705Z,23.6
2019-03-30T06:37:37.556Z,23.7
2019-03-30T06:40:43.563Z,23.7
2019-03-30T06:43:49.422Z,23.7
2019-03-30T06:46:55.348Z,23.7
2019-03-30T06:50:01.293Z,23.7
2019-03-30T06:53:07.270Z,23.8
2019-03-30T06:56:13.118Z,23.8
2019-03-30T06:59:19.092Z,23.8
2019-03-30T07:02:24.974Z,23.9
2019-03-30T07:05:31.028Z,23.9
2019-03-30T07:08:36.905Z,23.9
2019-03-30T07:11:42.846Z,23.9
2019-03-30T07:14:48.716Z,24
2019-03-30T07:17:54.693Z,24
2019-03-30T07:21:00.638Z,24
2019-03-30T07:24:06.628Z,24
2019-03-30T07:27:12.651Z,24
2019-03-30T07:30:18.588Z,24
2019-03-30T07:33:24.665Z,24.1
2019-03-30T07:36:30.533Z,24.1
2019-03-30T07:39:36.500Z,24.1
2019-03-30T07:42:42.406Z,24.1
2019-03-30T07:45:48.373Z,24.1
2019-03-30T07:48:54.336Z,24.1
2019-03-30T07:52:00.302Z,24.2
2019-03-30T07:55:06.318Z,24.2
2019-03-30T07:58:12.402Z,24.1
2019-03-30T08:01:18.319Z,24.2
2019-03-30T08:04:24.244Z,24.2
2019-03-30T08:07:33.680Z,24.2
2019-03-30T08:10:39.832Z,24.1
2019-03-30T08:13:45.856Z,24.2
2019-03-30T08:16:51.775Z,24.2
2019-03-30T08:19:57.704Z,24.2
2019-03-30T08:23:03.833Z,24.2
2019-03-30T08:26:09.836Z,24.2
2019-03-30T08:29:15.742Z,24.2
2019-03-30T08:32:21.685Z,24.2
2019-03-30T08:35:27.561Z,24.2
2019-03-30T08:38:33.571Z,24.2
2019-03-30T08:41:42.694Z,24.2
2019-03-30T08:44:48.617Z,24.2
2019-03-30T08:47:54.551Z,24.1
2019-03-30T08:51:00.538Z,24.1
2019-03-30T08:54:06.614Z,24.1
2019-03-30T08:57:12.613Z,24.1
2019-03-30T09:00:18.609Z,24.2
2019-03-30T09:03:24.572Z,24.2
2019-03-30T09:06:30.534Z,24.1
2019-03-30T09:09:36.501Z,24.2
2019-03-30T09:12:42.583Z,24.2
2019-03-30T09:15:51.134Z,24.2
2019-03-30T09:18:57.097Z,24.2
2019-03-30T09:22:02.962Z,24.1
2019-03-30T09:25:08.922Z,24.1
2019-03-30T09:28:14.823Z,24.2
2019-03-30T09:31:20.756Z,24.2
2019-03-30T09:34:26.642Z,24.2
2019-03-30T09:37:32.646Z,24.2
2019-03-30T09:40:38.561Z,24.2
2019-03-30T09:43:44.477Z,24.2
2019-03-30T09:46:50.496Z,24.2
2019-03-30T09:49:56.486Z,24.2
2019-03-30T09:53:06.247Z,24.1
2019-03-30T09:56:14.429Z,24.1
2019-03-30T09:59:20.361Z,24.2
2019-03-30T10:02:26.429Z,24.1
2019-03-30T10:05:32.285Z,24.1
2019-03-30T10:08:41.155Z,24.1
2019-03-30T10:11:47.124Z,24.1
2019-03-30T10:14:53.123Z,24.1
2019-03-30T10:17:59.014Z,24.2
2019-03-30T10:21:04.975Z,24.1
2019-03-30T10:24:10.925Z,24.1
2019-03-30T10:27:16.852Z,24.1
2019-03-30T10:30:22.839Z,24.1
2019-03-30T10:33:28.736Z,24.1
2019-03-30T10:36:34.704Z,24.1
2019-03-30T10:39:40.606Z,24.1
2019-03-30T10:42:46.581Z,24.1
2019-03-30T10:45:52.695Z,24.1
2019-03-30T10:48:58.640Z,24.1
2019-03-30T10:52:04.639Z,24.1
2019-03-30T10:55:10.510Z,24.1
2019-03-30T10:58:16.441Z,24.1
2019-03-30T11:01:22.327Z,24.1
2019-03-30T11:04:28.259Z,24.1
2019-03-30T11:07:34.272Z,24.2
2019-03-30T11:10:40.281Z,24.1
2019-03-30T11:13:46.291Z,24.1
2019-03-30T11:16:52.325Z,24.1
2019-03-30T11:19:58.260Z,24.1
2019-03-30T11:23:06.723Z,24.2
2019-03-30T11:26:12.695Z,24.2
2019-03-30T11:29:18.801Z,24.1
2019-03-30T11:32:24.719Z,24.2
2019-03-30T11:35:30.789Z,24.2
2019-03-30T11:38:36.716Z,24.2
2019-03-30T11:41:42.692Z,24.2
2019-03-30T11:44:48.641Z,24.2
2019-03-30T11:47:54.745Z,24.2
2019-03-30T11:51:00.735Z,24.2
2019-03-30T11:54:07.728Z,24.2
2019-03-30T11:57:13.761Z,24.2
2019-03-30T12:00:19.755Z,24.2
2019-03-30T12:03:25.760Z,24.2
2019-03-30T12:06:31.808Z,24.2
2019-03-30T12:09:37.801Z,24.2
2019-03-30T12:12:43.782Z,24.2
2019-03-30T12:15:49.779Z,24.2
2019-03-30T12:18:55.708Z,24.2
2019-03-30T12:22:02.013Z,24.2
2019-03-30T12:25:07.961Z,24.2
2019-03-30T12:28:13.938Z,24.2
2019-03-30T12:31:19.896Z,24.2
2019-03-30T12:34:26.029Z,24.2
2019-03-30T12:37:31.964Z,24.2
2019-03-30T12:40:37.954Z,24.2
2019-03-30T12:43:43.828Z,24.2
2019-03-30T12:46:52.465Z,24.2
2019-03-30T12:49:58.584Z,24.2
2019-03-30T12:53:04.635Z,24.2
2019-03-30T12:56:10.566Z,24.2
2019-03-30T12:59:18.871Z,24.2
2019-03-30T13:02:24.892Z,24.2
2019-03-30T13:05:30.809Z,24.2
2019-03-30T13:08:36.928Z,24.2
2019-03-30T13:11:42.881Z,24.2
2019-03-30T13:14:48.756Z,24.2
2019-03-30T13:17:54.727Z,24.2
2019-03-30T13:21:00.677Z,24.2
2019-03-30T13:24:06.599Z,24.2
2019-03-30T13:27:13.012Z,24.2
2019-03-30T13:30:19.125Z,24.2
2019-03-30T13:33:25.112Z,24.2
2019-03-30T13:36:30.987Z,24.2
2019-03-30T13:39:36.907Z,24.2
2019-03-30T13:42:42.802Z,24.2
2019-03-30T13:45:48.727Z,24.2
2019-03-30T13:48:54.626Z,24.2
2019-03-30T13:52:00.613Z,24.2
2019-03-30T13:55:06.551Z,24.2
2019-03-30T13:58:12.650Z,24.2
2019-03-30T14:01:18.564Z,24.2
2019-03-30T14:04:24.519Z,24.2
2019-03-30T14:07:30.474Z,24.2
2019-03-30T14:10:38.946Z,24.2
2019-03-30T14:13:45.016Z,24.2
2019-03-30T14:16:50.976Z,24.2
2019-03-30T14:19:57.018Z,24.2
2019-03-30T14:23:02.944Z,24.2
2019-03-30T14:26:08.917Z,24.1
2019-03-30T14:29:14.969Z,24.2
2019-03-30T14:32:20.834Z,24.2
2019-03-30T14:35:26.756Z,24.2
2019-03-30T14:38:32.699Z,24.2
2019-03-30T14:41:41.370Z,24.2
2019-03-30T14:44:47.375Z,24.2
2019-03-30T14:47:53.344Z,24.1
2019-03-30T14:51:05.580Z,24.1
2019-03-30T14:54:11.553Z,24.1
2019-03-30T14:57:17.517Z,24.1
2019-03-30T15:00:23.541Z,24.1
2019-03-30T15:03:30.967Z,24.1
2019-03-30T15:06:36.933Z,24.1
2019-03-30T15:09:42.844Z,24.1
2019-03-30T15:12:48.902Z,24.1
2019-03-30T15:15:55.941Z,24.1
2019-03-30T15:19:01.949Z,24.1
2019-03-30T15:22:07.873Z,24.1
2019-03-30T15:25:13.854Z,24.1
2019-03-30T15:28:19.893Z,24.1
2019-03-30T15:31:25.838Z,24.1
2019-03-30T15:34:31.766Z,24.1
2019-03-30T15:37:37.706Z,24.1
2019-03-30T15:40:43.718Z,24
2019-03-30T15:43:51.909Z,24
2019-03-30T15:46:58.054Z,24.1
2019-03-30T15:50:04.018Z,24
2019-03-30T15:53:09.986Z,24
2019-03-30T15:56:15.949Z,24
2019-03-30T15:59:21.915Z,24
2019-03-30T16:02:27.811Z,24
2019-03-30T16:05:33.815Z,24
2019-03-30T16:08:39.772Z,24
2019-03-30T16:11:45.677Z,24
2019-03-30T16:14:51.600Z,24
2019-03-30T16:17:57.507Z,23.9
2019-03-30T16:21:03.471Z,23.9
2019-03-30T16:24:09.464Z,23.9
2019-03-30T16:27:28.043Z,23.9
2019-03-30T16:30:35.065Z,23.9
2019-03-30T16:33:40.915Z,23.8
2019-03-30T16:36:50.502Z,23.8
2019-03-30T16:39:59.331Z,23.8
2019-03-30T16:43:08.213Z,23.8
2019-03-30T16:46:14.327Z,23.7
2019-03-30T16:49:20.297Z,23.7
2019-03-30T16:52:26.216Z,23.7
2019-03-30T16:55:32.158Z,23.7
2019-03-30T16:58:38.117Z,23.7
2019-03-30T17:01:44.079Z,23.7
2019-03-30T17:04:49.993Z,23.6
2019-03-30T17:07:55.994Z,23.6
2019-03-30T17:11:01.930Z,23.6
2019-03-30T17:14:07.864Z,23.6
2019-03-30T17:17:13.772Z,23.6
2019-03-30T17:20:19.705Z,23.6
2019-03-30T17:23:25.687Z,23.5
2019-03-30T17:26:31.550Z,23.5
2019-03-30T17:29:37.474Z,23.5
2019-03-30T17:32:43.445Z,23.5
2019-03-30T17:35:49.449Z,23.4
2019-03-30T17:38:55.462Z,23.4
2019-03-30T17:42:01.417Z,23.4
2019-03-30T17:45:07.480Z,23.4
2019-03-30T17:48:13.401Z,23.4
2019-03-30T17:51:19.338Z,23.3
2019-03-30T17:54:25.396Z,23.3
2019-03-30T17:57:31.465Z,23.3
2019-03-30T18:00:39.989Z,23.3
2019-03-30T18:03:45.848Z,23.3
2019-03-30T18:06:51.761Z,23.2
2019-03-30T18:09:57.779Z,23.2
2019-03-30T18:13:07.715Z,23.2
2019-03-30T18:16:13.647Z,23.1
2019-03-30T18:19:22.970Z,23.1
2019-03-30T18:22:28.927Z,23.1
2019-03-30T18:25:34.878Z,23.1
2019-03-30T18:28:40.784Z,23.1
2019-03-30T18:31:46.842Z,23
2019-03-30T18:34:52.822Z,23
2019-03-30T18:37:59.011Z,23
2019-03-30T18:41:04.937Z,23
2019-03-30T18:44:10.898Z,23
2019-03-30T18:47:16.860Z,23
2019-03-30T18:50:22.710Z,22.9
2019-03-30T18:53:28.723Z,22.9
2019-03-30T18:56:34.629Z,22.9
2019-03-30T18:59:40.563Z,22.9
2019-03-30T19:02:46.608Z,22.9
2019-03-30T19:05:52.608Z,22.9
2019-03-30T19:08:58.534Z,22.8
2019-03-30T19:12:04.483Z,22.9
2019-03-30T19:15:10.489Z,22.8
2019-03-30T19:18:16.416Z,22.8
2019-03-30T19:21:22.411Z,22.8
2019-03-30T19:24:28.327Z,22.8
2019-03-30T19:27:34.288Z,22.8
2019-03-30T19:30:42.092Z,22.8
2019-03-30T19:33:48.417Z,22.8
2019-03-30T19:36:54.304Z,22.8
2019-03-30T19:40:00.394Z,22.7
2019-03-30T19:43:06.298Z,22.7
2019-03-30T19:46:12.396Z,22.7
2019-03-30T19:49:18.507Z,22.7
2019-03-30T19:52:38.933Z,22.7
2019-03-30T19:55:46.006Z,22.7
2019-03-30T19:58:51.858Z,22.7
2019-03-30T20:02:13.387Z,22.6
2019-03-30T20:05:19.422Z,22.6
2019-03-30T20:08:25.352Z,22.6
2019-03-30T20:11:31.398Z,22.6
2019-03-30T20:14:37.481Z,22.6
2019-03-30T20:17:43.383Z,22.6
2019-03-30T20:20:49.303Z,22.6
2019-03-30T20:23:55.201Z,22.6
2019-03-30T20:27:01.165Z,22.6
2019-03-30T20:30:09.588Z,22.6
2019-03-30T20:33:15.554Z,22.5
2019-03-30T20:36:21.703Z,22.5
2019-03-30T20:39:30.316Z,22.5
2019-03-30T20:42:36.391Z,22.5
2019-03-30T20:45:42.297Z,22.5
2019-03-30T20:48:48.242Z,22.5
2019-03-30T20:51:54.166Z,22.5
2019-03-30T20:55:00.091Z,22.5
2019-03-30T20:58:06.239Z,22.5
2019-03-30T21:01:12.188Z,22.4
2019-03-30T21:04:18.134Z,22.4
2019-03-30T21:07:24.120Z,22.4
2019-03-30T21:10:30.035Z,22.4
2019-03-30T21:13:36.072Z,22.4
2019-03-30T21:16:42.050Z,22.4
2019-03-30T21:19:47.913Z,22.4
2019-03-30T21:22:53.874Z,22.4
2019-03-30T21:25:59.851Z,22.4
2019-03-30T21:29:05.793Z,22.4
2019-03-30T21:32:11.741Z,22.3
2019-03-30T21:35:17.754Z,22.4
2019-03-30T21:38:23.807Z,22.3
2019-03-30T21:41:29.771Z,22.3
2019-03-30T21:44:38.671Z,22.3
2019-03-30T21:47:47.547Z,22.3
2019-03-30T21:50:53.518Z,22.3
2019-03-30T21:53:59.460Z,22.3
2019-03-30T21:57:05.372Z,22.3
2019-03-30T22:00:11.859Z,22.3
2019-03-30T22:03:17.910Z,22.3
2019-03-30T22:06:23.872Z,22.2
2019-03-30T22:09:29.719Z,22.2
2019-03-30T22:12:35.745Z,22.2
2019-03-30T22:15:41.835Z,22.2
2019-03-30T22:18:47.703Z,22.2
2019-03-30T22:21:53.707Z,22.2
2019-03-30T22:24:59.627Z,22.2
2019-03-30T22:28:05.830Z,22.2
2019-03-30T22:31:11.855Z,22.2
2019-03-30T22:34:17.712Z,22.2
2019-03-30T22:37:23.650Z,22.2
2019-03-30T22:40:29.527Z,22.1
2019-03-30T22:43:35.635Z,22.1
2019-03-30T22:46:41.649Z,22.1
2019-03-30T22:49:47.509Z,22.1
2019-03-30T22:52:53.453Z,22.1
2019-03-30T22:55:59.326Z,22.1
2019-03-30T22:59:08.276Z,22.1
2019-03-30T23:02:14.349Z,22.1
2019-03-30T23:05:22.827Z,22.1
2019-03-30T23:08:28.749Z,22.1
2019-03-30T23:11:34.794Z,22.1
2019-03-30T23:14:40.920Z,22.1
2019-03-30T23:17:49.853Z,22
2019-03-30T23:20:55.824Z,22
2019-03-30T23:24:01.763Z,22.1
2019-03-30T23:27:07.800Z,22
2019-03-30T23:30:13.698Z,22
2019-03-30T23:33:19.624Z,22
2019-03-30T23:36:25.565Z,22
2019-03-30T23:39:31.529Z,22
2019-03-30T23:42:37.434Z,22
2019-03-30T23:45:43.811Z,22
2019-03-30T23:48:49.658Z,21.9
2019-03-30T23:51:55.596Z,21.9
2019-03-30T23:55:01.487Z,21.9
2019-03-30T23:58:07.411Z,21.9
